Time;durP1;ratioP1;P1;durP2;ratioP2;P2;SDS_P1;SDS_P2;PMS_P1;PMS_P2;Temp;Humidity;BMP_temperature;BMP_pressure;BME280_temperature;BME280_humidity;BME280_pressure;Samples;Min_cycle;Max_cycle;Signal;HPM_P1;HPM_P2
2021/05/10 00:01:32;;;;;;;1.30;1.07;;;17.00;93.20;;;;;;5072646;28;20487;-76
2021/05/10 00:03:58;;;;;;;1.40;1.10;;;17.00;93.70;;;;;;5068397;28;20461;-75
2021/05/10 00:06:25;;;;;;;1.50;1.27;;;17.10;93.60;;;;;;5072546;28;20460;-76
2021/05/10 00:08:51;;;;;;;1.50;1.10;;;17.00;93.20;;;;;;5069760;28;20770;-76
2021/05/10 00:11:18;;;;;;;1.20;1.00;;;16.80;93.10;;;;;;5072461;28;20983;-76
2021/05/10 00:13:48;;;;;;;1.63;1.00;;;16.70;93.50;;;;;;5069704;28;20461;-76
2021/05/10 00:16:15;;;;;;;1.20;1.10;;;16.70;94.10;;;;;;5072276;28;20812;-76
2021/05/10 00:18:41;;;;;;;1.20;1.10;;;16.50;94.70;;;;;;5068951;28;20495;-76
2021/05/10 00:21:08;;;;;;;1.73;1.50;;;16.30;95.70;;;;;;5071945;28;20456;-76
2021/05/10 00:23:34;;;;;;;1.20;1.00;;;16.20;95.90;;;;;;5069827;28;20461;-76
2021/05/10 00:26:01;;;;;;;1.20;1.10;;;16.30;95.50;;;;;;5072010;28;20497;-76
2021/05/10 00:28:27;;;;;;;1.23;1.10;;;16.30;95.80;;;;;;5069692;28;20822;-76
2021/05/10 00:30:55;;;;;;;1.30;1.20;;;16.20;96.40;;;;;;5070686;28;21024;-77
2021/05/10 00:33:21;;;;;;;1.90;1.30;;;16.00;97.20;;;;;;5069574;28;20449;-76
2021/05/10 00:35:49;;;;;;;1.67;1.10;;;15.90;98.00;;;;;;5071830;28;20448;-76
2021/05/10 00:38:15;;;;;;;1.30;1.20;;;15.80;98.00;;;;;;5069243;28;20851;-76
2021/05/10 00:40:41;;;;;;;1.20;1.00;;;15.80;98.00;;;;;;5071981;28;20520;-76
2021/05/10 00:43:08;;;;;;;1.20;1.10;;;15.80;98.00;;;;;;5069515;28;20829;-76
2021/05/10 00:45:35;;;;;;;1.40;1.33;;;15.90;98.00;;;;;;5071828;28;20543;-76
2021/05/10 00:48:03;;;;;;;1.20;1.00;;;15.80;98.00;;;;;;5069280;28;20457;-76
2021/05/10 00:50:30;;;;;;;1.77;1.10;;;15.70;98.00;;;;;;5071796;28;20478;-76
2021/05/10 00:52:56;;;;;;;1.40;1.13;;;15.80;98.00;;;;;;5069092;28;20453;-76
2021/05/10 00:55:23;;;;;;;1.20;1.10;;;15.90;98.00;;;;;;5071731;28;20444;-76
2021/05/10 00:57:52;;;;;;;2.33;1.30;;;15.80;98.00;;;;;;5069110;28;20489;-77
2021/05/10 01:00:21;;;;;;;1.30;1.30;;;15.80;98.00;;;;;;5071797;28;20553;-76
2021/05/10 01:02:48;;;;;;;2.07;1.40;;;15.80;98.00;;;;;;5069511;28;20982;-77
2021/05/10 01:05:17;;;;;;;1.20;1.10;;;15.90;98.00;;;;;;5071530;28;20496;-76
2021/05/10 01:07:44;;;;;;;1.20;1.00;;;15.60;98.00;;;;;;5071206;28;20492;-76
2021/05/10 01:10:13;;;;;;;1.20;1.10;;;15.50;98.00;;;;;;5068502;28;20503;-76
2021/05/10 01:12:40;;;;;;;1.33;1.20;;;15.50;97.10;;;;;;5071425;28;20514;-76
2021/05/10 01:15:15;;;;;;;1.20;0.90;;;15.50;98.00;;;;;;5068608;28;20467;-76
2021/05/10 01:17:42;;;;;;;1.23;1.03;;;15.30;98.00;;;;;;5071015;28;20488;-76
2021/05/10 01:20:12;;;;;;;1.27;1.07;;;15.20;97.60;;;;;;5068345;28;20488;-77
2021/05/10 01:22:41;;;;;;;1.20;1.10;;;15.30;97.90;;;;;;5070776;28;20831;-77
2021/05/10 01:25:10;;;;;;;1.20;1.10;;;15.30;96.90;;;;;;5068318;28;20479;-76
2021/05/10 01:27:37;;;;;;;1.20;1.10;;;15.10;96.90;;;;;;5070975;28;20483;-76
2021/05/10 01:30:06;;;;;;;1.40;1.07;;;15.00;97.70;;;;;;5068390;28;20860;-76
2021/05/10 01:32:32;;;;;;;1.30;1.10;;;15.10;97.70;;;;;;5071021;28;20469;-76
2021/05/10 01:34:59;;;;;;;1.20;1.00;;;15.10;97.10;;;;;;5066992;28;20456;-76
2021/05/10 01:37:26;;;;;;;1.30;1.10;;;15.10;97.80;;;;;;5070962;28;20528;-76
2021/05/10 01:39:53;;;;;;;1.20;0.90;;;15.10;97.80;;;;;;5068509;28;21005;-76
2021/05/10 01:42:20;;;;;;;1.20;1.10;;;15.00;97.80;;;;;;5070605;28;20464;-76
2021/05/10 01:44:47;;;;;;;1.60;1.20;;;15.10;98.00;;;;;;5068271;28;20457;-76
2021/05/10 01:47:13;;;;;;;1.37;1.07;;;15.10;98.00;;;;;;5070699;28;20935;-76
2021/05/10 01:49:45;;;;;;;1.20;1.00;;;14.90;98.00;;;;;;5068425;28;20464;-76
2021/05/10 01:52:14;;;;;;;1.20;1.00;;;14.90;98.00;;;;;;5070680;28;20493;-76
2021/05/10 01:54:41;;;;;;;1.20;1.00;;;14.70;98.00;;;;;;5068211;28;20453;-76
2021/05/10 01:57:11;;;;;;;1.20;1.10;;;14.60;98.00;;;;;;5070599;28;20453;-76
2021/05/10 01:59:38;;;;;;;1.73;1.10;;;14.50;98.00;;;;;;5068520;28;20455;-76
2021/05/10 02:02:04;;;;;;;1.40;1.20;;;14.30;98.00;;;;;;5070731;28;20452;-76
2021/05/10 02:05:18;;;;;;;1.67;1.10;;;14.40;98.00;;;;;;5067968;28;20461;-76
2021/05/10 02:07:46;;;;;;;1.67;1.17;;;14.20;98.00;;;;;;5022399;28;20455;-76
2021/05/10 02:10:15;;;;;;;1.57;1.40;;;14.40;98.00;;;;;;5068027;28;20459;-76
2021/05/10 02:12:51;;;;;;;1.20;1.00;;;14.60;98.00;;;;;;5070543;28;20922;-77
2021/05/10 02:15:18;;;;;;;1.50;1.30;;;14.40;98.00;;;;;;5068290;28;20463;-76
2021/05/10 02:17:45;;;;;;;1.20;1.00;;;14.30;98.00;;;;;;5070277;28;20496;-76
2021/05/10 02:20:11;;;;;;;1.20;1.03;;;14.10;98.00;;;;;;5067742;28;20832;-76
2021/05/10 02:22:38;;;;;;;1.20;1.00;;;14.30;98.00;;;;;;5070477;28;20463;-76
2021/05/10 02:25:06;;;;;;;1.30;1.13;;;14.20;98.00;;;;;;5066939;28;20472;-76
2021/05/10 02:27:32;;;;;;;1.30;1.17;;;14.30;98.00;;;;;;5070629;28;20506;-77
2021/05/10 02:30:00;;;;;;;1.20;1.00;;;14.30;98.00;;;;;;5068681;28;20465;-77
2021/05/10 02:32:26;;;;;;;1.20;1.00;;;14.30;98.00;;;;;;5070698;28;20453;-76
2021/05/10 02:34:53;;;;;;;1.33;1.10;;;14.20;98.00;;;;;;5067772;28;20472;-77
2021/05/10 02:37:19;;;;;;;1.20;1.00;;;14.00;98.00;;;;;;5070423;28;20535;-76
2021/05/10 02:39:46;;;;;;;1.30;1.13;;;14.10;98.00;;;;;;5067919;28;20477;-76
2021/05/10 02:42:12;;;;;;;1.50;1.20;;;14.20;98.00;;;;;;5071217;28;20829;-76
2021/05/10 02:44:40;;;;;;;1.40;1.10;;;14.40;98.00;;;;;;5071610;28;20456;-76
2021/05/10 02:47:08;;;;;;;1.20;1.00;;;14.40;98.00;;;;;;5074270;28;20464;-76
2021/05/10 02:49:34;;;;;;;1.27;1.07;;;14.30;98.00;;;;;;5071723;28;20463;-76
2021/05/10 02:52:00;;;;;;;1.20;1.10;;;14.10;98.00;;;;;;5074065;28;20495;-76
2021/05/10 02:54:27;;;;;;;1.73;1.30;;;14.00;98.00;;;;;;5071844;28;20512;-76
2021/05/10 02:56:54;;;;;;;1.20;1.17;;;14.10;98.00;;;;;;5072768;28;20458;-76
2021/05/10 02:59:20;;;;;;;1.20;1.00;;;14.10;98.00;;;;;;5071398;28;20483;-76
2021/05/10 03:01:46;;;;;;;1.20;1.00;;;14.00;98.00;;;;;;5074073;28;20455;-76
2021/05/10 03:04:14;;;;;;;1.20;1.10;;;14.00;98.00;;;;;;5069947;28;20556;-76
2021/05/10 03:06:40;;;;;;;1.37;1.23;;;14.10;98.00;;;;;;5073568;28;20452;-76
2021/05/10 03:09:07;;;;;;;1.20;1.03;;;14.10;98.00;;;;;;5069958;28;20495;-76
2021/05/10 03:11:33;;;;;;;2.37;1.10;;;14.10;98.00;;;;;;5073602;28;20641;-76
2021/05/10 03:14:00;;;;;;;1.50;1.30;;;14.10;98.00;;;;;;5071238;28;20461;-77
2021/05/10 03:16:26;;;;;;;1.20;1.00;;;14.10;98.00;;;;;;5073598;28;20545;-76
2021/05/10 03:18:52;;;;;;;1.20;1.00;;;14.20;98.00;;;;;;5070961;28;20486;-76
2021/05/10 03:21:20;;;;;;;1.20;1.00;;;14.10;98.00;;;;;;5073441;28;20460;-77
2021/05/10 03:23:46;;;;;;;1.23;1.07;;;14.20;98.00;;;;;;5070859;28;20452;-76
2021/05/10 03:26:13;;;;;;;1.20;1.10;;;14.10;98.00;;;;;;5073241;28;20456;-76
2021/05/10 03:28:40;;;;;;;1.40;1.00;;;14.10;98.00;;;;;;5070655;28;20538;-76
2021/05/10 03:31:06;;;;;;;1.20;1.10;;;13.80;98.00;;;;;;5073319;28;20563;-76
2021/05/10 03:33:33;;;;;;;1.20;1.00;;;13.60;98.00;;;;;;5070818;28;20522;-75
2021/05/10 03:35:59;;;;;;;1.20;1.00;;;13.60;98.00;;;;;;5073182;28;20454;-76
2021/05/10 03:38:26;;;;;;;3.30;1.63;;;13.50;98.00;;;;;;5070565;28;21062;-76
2021/05/10 03:40:53;;;;;;;1.20;0.90;;;13.40;98.00;;;;;;5072910;28;20454;-76
2021/05/10 03:43:19;;;;;;;1.50;1.30;;;13.70;98.00;;;;;;5070436;28;20457;-76
2021/05/10 03:45:46;;;;;;;1.30;1.10;;;13.60;98.00;;;;;;5073024;28;20982;-76
2021/05/10 03:48:12;;;;;;;1.20;1.00;;;13.60;98.00;;;;;;5070511;28;20458;-76
2021/05/10 03:50:39;;;;;;;1.20;1.00;;;13.50;98.00;;;;;;5072972;28;20456;-76
2021/05/10 03:53:06;;;;;;;1.20;1.00;;;13.60;98.00;;;;;;5068922;28;20982;-76
2021/05/10 03:55:34;;;;;;;1.53;1.50;;;13.70;98.00;;;;;;5072060;28;20453;-76
2021/05/10 03:58:00;;;;;;;1.20;1.10;;;13.70;98.00;;;;;;5072839;28;20919;-76
2021/05/10 04:00:27;;;;;;;1.30;1.10;;;13.80;98.00;;;;;;5069842;28;20455;-76
2021/05/10 04:02:53;;;;;;;2.07;1.30;;;14.00;98.00;;;;;;5072685;28;20463;-76
2021/05/10 04:05:39;;;;;;;1.20;1.00;;;13.90;98.00;;;;;;5069917;28;20460;-76
2021/05/10 04:08:13;;;;;;;1.30;1.20;;;13.70;98.00;;;;;;5071050;28;20457;-76
2021/05/10 04:10:45;;;;;;;2.07;1.20;;;13.70;98.00;;;;;;5072494;28;20457;-76
2021/05/10 04:15:57;;;;;;;1.60;1.10;;;14.00;98.00;;;;;;5072693;28;20450;-76
2021/05/10 04:18:24;;;;;;;1.20;0.90;;;14.20;98.00;;;;;;5068653;28;20818;-76
2021/05/10 04:20:51;;;;;;;1.20;1.10;;;14.30;98.00;;;;;;5072588;28;20526;-76
2021/05/10 04:23:18;;;;;;;1.20;1.00;;;14.30;98.00;;;;;;5068477;28;20517;-76
2021/05/10 04:25:50;;;;;;;1.20;1.10;;;14.20;98.00;;;;;;5072559;28;20463;-76
2021/05/10 04:28:18;;;;;;;1.20;1.17;;;14.30;98.00;;;;;;5070444;28;21028;-76
2021/05/10 04:30:46;;;;;;;1.40;1.20;;;14.30;98.00;;;;;;5072719;28;20523;-76
2021/05/10 04:33:12;;;;;;;1.20;1.00;;;14.20;98.00;;;;;;5070486;28;20459;-76
2021/05/10 04:35:42;;;;;;;1.20;0.97;;;14.10;98.00;;;;;;5073069;28;20501;-76
2021/05/10 04:38:11;;;;;;;1.20;1.10;;;14.10;98.00;;;;;;5069848;28;20491;-77
2021/05/10 04:40:40;;;;;;;1.20;1.00;;;14.10;98.00;;;;;;5072055;28;20858;-76
2021/05/10 04:43:08;;;;;;;1.20;1.00;;;14.20;98.00;;;;;;5070038;28;20815;-75
2021/05/10 04:45:35;;;;;;;2.00;1.20;;;14.40;98.00;;;;;;5069795;28;20466;-76
2021/05/10 04:48:01;;;;;;;1.30;1.10;;;14.40;98.00;;;;;;5071788;28;20452;-76
2021/05/10 04:50:31;;;;;;;3.30;1.43;;;14.40;98.00;;;;;;5069196;28;20501;-76
2021/05/10 04:52:57;;;;;;;1.20;1.00;;;14.30;98.00;;;;;;5071726;28;20461;-76
2021/05/10 04:55:24;;;;;;;1.20;1.10;;;14.40;98.00;;;;;;5069492;28;20464;-76
2021/05/10 04:57:51;;;;;;;1.20;1.03;;;14.40;98.00;;;;;;5072008;28;20480;-76
2021/05/10 05:00:19;;;;;;;1.23;1.03;;;14.40;98.00;;;;;;5069880;28;20457;-76
2021/05/10 05:02:46;;;;;;;1.30;1.20;;;14.50;98.00;;;;;;5071551;28;20460;-76
2021/05/10 05:05:14;;;;;;;1.23;1.03;;;14.50;98.00;;;;;;5068541;28;20979;-76
2021/05/10 05:07:42;;;;;;;1.20;1.00;;;14.50;98.00;;;;;;5071661;28;20939;-75
2021/05/10 05:10:10;;;;;;;1.20;0.90;;;14.80;98.00;;;;;;5068951;28;20456;-76
2021/05/10 05:12:38;;;;;;;1.20;1.10;;;14.60;98.00;;;;;;5070081;28;20454;-76
2021/05/10 05:15:06;;;;;;;1.30;1.10;;;14.50;98.00;;;;;;5068863;28;20464;-76
2021/05/10 05:17:33;;;;;;;1.30;1.00;;;14.40;98.00;;;;;;5070618;28;20490;-75
2021/05/10 05:20:00;;;;;;;2.03;1.83;;;14.40;98.00;;;;;;5068687;28;20455;-76
2021/05/10 05:22:28;;;;;;;1.20;0.90;;;14.40;98.00;;;;;;5069865;28;20453;-76
2021/05/10 05:24:56;;;;;;;1.70;1.17;;;14.60;98.00;;;;;;5068506;28;20522;-76
2021/05/10 05:27:22;;;;;;;1.20;1.00;;;14.80;98.00;;;;;;5069819;28;20504;-76
2021/05/10 05:29:49;;;;;;;1.50;1.20;;;15.00;98.00;;;;;;5068767;28;20471;-76
2021/05/10 05:32:15;;;;;;;1.40;1.13;;;15.10;98.00;;;;;;5069717;28;20457;-76
2021/05/10 05:34:43;;;;;;;1.20;1.07;;;15.10;98.00;;;;;;5067441;28;20456;-76
2021/05/10 05:37:09;;;;;;;1.20;1.00;;;15.30;98.00;;;;;;5070997;28;20463;-76
2021/05/10 05:39:39;;;;;;;1.90;1.13;;;15.30;98.00;;;;;;5067083;28;20674;-76
2021/05/10 05:42:06;;;;;;;1.20;1.00;;;15.40;98.00;;;;;;5070936;28;20981;-76
2021/05/10 05:44:34;;;;;;;1.63;1.50;;;15.60;98.00;;;;;;5068374;28;20477;-76
2021/05/10 05:47:03;;;;;;;1.57;1.20;;;15.80;98.00;;;;;;5069817;28;20472;-76
2021/05/10 05:49:30;;;;;;;1.30;1.30;;;15.90;98.00;;;;;;5068405;28;20487;-76
2021/05/10 05:51:58;;;;;;;1.30;1.10;;;15.90;98.00;;;;;;5071130;28;20867;-76
2021/05/10 05:54:27;;;;;;;1.20;1.00;;;16.00;98.00;;;;;;5068353;28;20943;-75
2021/05/10 05:56:54;;;;;;;1.20;1.00;;;16.10;98.00;;;;;;5069711;28;20510;-76
2021/05/10 05:59:20;;;;;;;1.40;1.10;;;16.20;98.00;;;;;;5068287;28;20481;-76
2021/05/10 06:01:48;;;;;;;1.20;1.00;;;16.20;98.00;;;;;;5070637;28;20456;-74
2021/05/10 06:04:15;;;;;;;1.20;1.00;;;16.30;98.00;;;;;;5067952;28;20534;-75
2021/05/10 06:06:41;;;;;;;2.17;1.30;;;16.50;98.00;;;;;;5068756;28;20506;-74
2021/05/10 06:09:10;;;;;;;1.40;1.10;;;16.50;98.00;;;;;;5068232;28;20811;-75
2021/05/10 06:11:37;;;;;;;1.40;1.10;;;16.70;98.00;;;;;;5069272;28;20457;-75
2021/05/10 06:14:04;;;;;;;1.30;1.07;;;16.80;98.00;;;;;;5067989;28;20445;-74
2021/05/10 06:16:32;;;;;;;1.20;1.00;;;16.90;98.00;;;;;;5070586;28;20543;-74
2021/05/10 06:18:58;;;;;;;1.30;1.10;;;17.00;98.00;;;;;;5071407;28;20641;-73
2021/05/10 06:21:25;;;;;;;1.60;1.13;;;17.30;98.00;;;;;;5074325;28;20460;-73
2021/05/10 06:23:52;;;;;;;1.50;1.23;;;17.40;98.00;;;;;;5071997;28;20465;-75
2021/05/10 06:26:20;;;;;;;1.50;1.20;;;17.40;98.00;;;;;;5074368;28;20539;-74
2021/05/10 06:28:46;;;;;;;1.40;1.10;;;17.40;98.00;;;;;;5072046;28;20950;-74
2021/05/10 06:31:12;;;;;;;1.40;1.20;;;17.40;98.00;;;;;;5074379;28;20460;-73
2021/05/10 06:33:39;;;;;;;1.50;1.30;;;17.40;98.00;;;;;;5071699;28;20979;-76
2021/05/10 06:36:06;;;;;;;1.20;1.10;;;17.40;98.00;;;;;;5056416;28;20487;-75
2021/05/10 06:38:33;;;;;;;2.97;1.87;;;17.50;98.00;;;;;;5071761;28;20484;-74
2021/05/10 06:41:00;;;;;;;1.67;1.17;;;17.50;98.00;;;;;;5072978;28;20468;-73
2021/05/10 06:43:28;;;;;;;1.20;1.10;;;17.70;98.00;;;;;;5071550;28;20824;-74
2021/05/10 06:45:54;;;;;;;1.20;1.00;;;17.90;98.00;;;;;;5073897;28;20457;-75
2021/05/10 06:48:31;;;;;;;1.20;1.00;;;17.90;98.00;;;;;;5072649;28;20494;-74
2021/05/10 06:50:58;;;;;;;1.50;1.40;;;17.90;97.60;;;;;;5073057;28;20497;-74
2021/05/10 06:53:26;;;;;;;1.50;1.23;;;18.10;94.40;;;;;;5070770;28;20464;-76
2021/05/10 06:55:53;;;;;;;1.60;1.33;;;18.20;95.60;;;;;;5073267;28;20456;-73
2021/05/10 06:58:20;;;;;;;1.20;1.00;;;18.40;95.50;;;;;;5072478;28;21020;-74
2021/05/10 07:00:51;;;;;;;1.20;1.00;;;18.60;95.10;;;;;;5072858;28;20456;-74
2021/05/10 07:03:18;;;;;;;1.30;1.10;;;18.50;94.70;;;;;;5073454;28;20822;-74
2021/05/10 07:05:47;;;;;;;2.10;1.10;;;18.60;97.30;;;;;;5070952;28;20461;-74
2021/05/10 07:08:15;;;;;;;1.43;1.10;;;18.60;96.60;;;;;;5071342;28;20818;-74
2021/05/10 07:10:45;;;;;;;1.40;1.30;;;18.70;95.40;;;;;;5070705;28;20453;-74
2021/05/10 07:13:12;;;;;;;1.40;1.20;;;19.10;94.70;;;;;;5073174;28;20453;-74
2021/05/10 07:15:38;;;;;;;1.20;1.00;;;19.50;93.30;;;;;;5068811;28;20895;-73
2021/05/10 07:18:08;;;;;;;1.20;1.00;;;19.80;92.00;;;;;;5072616;28;20550;-74
2021/05/10 07:20:37;;;;;;;1.90;1.27;;;20.00;89.30;;;;;;5070882;28;20849;-75
2021/05/10 07:23:05;;;;;;;1.40;1.17;;;20.20;88.90;;;;;;5071802;28;20509;-73
2021/05/10 07:25:32;;;;;;;2.00;1.63;;;20.40;89.80;;;;;;5070637;28;20492;-72
2021/05/10 07:27:58;;;;;;;1.20;1.10;;;20.40;87.70;;;;;;5072853;28;20456;-70
2021/05/10 07:30:25;;;;;;;1.20;1.00;;;20.50;88.10;;;;;;5069012;28;20457;-74
2021/05/10 07:32:51;;;;;;;1.50;1.13;;;20.70;88.00;;;;;;5072881;28;20457;-72
2021/05/10 07:35:19;;;;;;;1.20;1.00;;;20.60;86.60;;;;;;5070089;28;20457;-71
2021/05/10 07:37:47;;;;;;;1.20;1.10;;;20.70;85.40;;;;;;5072503;28;20481;-71
2021/05/10 07:40:18;;;;;;;1.40;1.23;;;20.70;85.60;;;;;;5070108;28;20457;-73
2021/05/10 07:42:44;;;;;;;1.97;1.30;;;20.70;86.30;;;;;;5073181;28;20552;-71
2021/05/10 07:45:11;;;;;;;1.20;1.10;;;20.60;86.10;;;;;;5070461;28;21217;-72
2021/05/10 07:47:39;;;;;;;1.20;1.10;;;20.60;87.30;;;;;;5073288;28;20453;-72
2021/05/10 07:50:06;;;;;;;1.30;1.03;;;20.50;88.70;;;;;;5070035;28;20461;-72
2021/05/10 07:52:33;;;;;;;1.40;1.00;;;20.50;88.20;;;;;;5073233;28;20480;-72
2021/05/10 07:55:00;;;;;;;1.40;1.13;;;20.60;87.80;;;;;;5070667;28;20510;-72
2021/05/10 07:57:27;;;;;;;1.40;1.10;;;20.70;87.50;;;;;;5073764;28;20457;-72
2021/05/10 07:59:54;;;;;;;1.33;1.17;;;20.70;87.40;;;;;;5070722;28;20483;-73
2021/05/10 08:02:23;;;;;;;3.50;1.40;;;20.70;85.60;;;;;;5073576;28;20759;-72
2021/05/10 08:04:50;;;;;;;1.50;1.20;;;20.80;85.90;;;;;;5070702;28;20502;-73
2021/05/10 08:07:16;;;;;;;1.20;1.13;;;20.80;86.30;;;;;;5073360;28;20461;-73
2021/05/10 08:09:44;;;;;;;1.20;1.00;;;20.80;87.50;;;;;;5070439;28;20457;-73
2021/05/10 08:12:12;;;;;;;1.70;1.40;;;20.90;88.00;;;;;;5073215;28;20981;-74
2021/05/10 08:14:38;;;;;;;1.50;1.20;;;20.90;88.40;;;;;;5070414;28;20943;-73
2021/05/10 08:17:05;;;;;;;1.20;1.10;;;21.00;87.80;;;;;;5073006;28;20449;-72
2021/05/10 08:19:32;;;;;;;1.20;1.10;;;20.90;87.60;;;;;;5068223;28;20576;-73
2021/05/10 08:22:00;;;;;;;1.83;1.20;;;21.00;87.70;;;;;;5073130;28;20457;-73
2021/05/10 08:24:27;;;;;;;1.83;1.43;;;21.10;86.70;;;;;;5069943;28;20457;-74
2021/05/10 08:26:55;;;;;;;2.17;1.37;;;21.10;87.30;;;;;;5073009;28;20461;-75
2021/05/10 08:29:22;;;;;;;1.73;1.30;;;21.10;86.90;;;;;;5070272;28;21096;-73
2021/05/10 08:31:49;;;;;;;1.53;1.20;;;21.20;85.70;;;;;;5072698;28;20461;-72
2021/05/10 08:34:17;;;;;;;1.40;1.10;;;21.40;87.00;;;;;;5070349;28;20458;-72
2021/05/10 08:36:44;;;;;;;1.20;1.10;;;21.70;84.30;;;;;;5073072;28;20475;-72
2021/05/10 08:39:11;;;;;;;1.70;1.30;;;21.90;84.20;;;;;;5069684;28;20812;-75
2021/05/10 08:41:39;;;;;;;1.20;1.07;;;22.10;82.90;;;;;;5072355;28;20448;-72
2021/05/10 08:44:09;;;;;;;1.20;1.10;;;22.30;83.00;;;;;;5069685;28;20542;-72
2021/05/10 08:46:39;;;;;;;1.33;1.20;;;22.40;81.70;;;;;;5072632;28;20463;-72
2021/05/10 08:49:06;;;;;;;1.20;1.00;;;22.50;81.40;;;;;;5068568;28;20814;-74
2021/05/10 08:51:34;;;;;;;1.30;1.17;;;22.70;81.80;;;;;;5071103;28;20461;-71
2021/05/10 08:54:00;;;;;;;1.20;1.10;;;22.90;82.50;;;;;;5069780;28;20457;-73
2021/05/10 08:56:28;;;;;;;1.20;1.10;;;23.20;82.50;;;;;;5072391;28;20881;-74
2021/05/10 08:58:56;;;;;;;1.60;1.10;;;23.50;80.40;;;;;;5069337;28;20928;-72
2021/05/10 09:01:23;;;;;;;1.40;1.10;;;23.60;80.50;;;;;;5072194;28;20578;-72
2021/05/10 09:03:50;;;;;;;1.23;1.07;;;23.60;78.90;;;;;;5069087;28;20934;-72
2021/05/10 09:06:21;;;;;;;1.30;1.10;;;23.70;79.20;;;;;;5071965;28;20485;-72
2021/05/10 09:08:48;;;;;;;3.27;1.30;;;23.70;80.00;;;;;;5069586;28;20484;-73
2021/05/10 09:11:16;;;;;;;1.20;1.10;;;23.80;79.60;;;;;;5071996;28;20489;-72
2021/05/10 09:13:44;;;;;;;1.30;1.10;;;23.80;79.90;;;;;;5069016;28;20457;-71
2021/05/10 09:16:12;;;;;;;1.63;1.53;;;23.80;78.70;;;;;;5072331;28;20463;-72
2021/05/10 09:18:40;;;;;;;1.57;1.30;;;23.90;79.60;;;;;;5067439;28;20542;-72
2021/05/10 09:21:17;;;;;;;1.20;1.10;;;23.90;79.10;;;;;;5072238;28;20463;-72
2021/05/10 09:23:44;;;;;;;1.20;1.20;;;24.00;79.40;;;;;;5069229;28;20449;-72
2021/05/10 09:26:12;;;;;;;1.40;1.20;;;24.00;80.10;;;;;;5071715;28;20812;-74
2021/05/10 09:28:41;;;;;;;2.83;1.57;;;24.10;80.50;;;;;;5069543;28;20452;-73
2021/05/10 09:31:09;;;;;;;1.20;1.10;;;24.20;78.80;;;;;;5071867;28;20463;-74
2021/05/10 09:33:41;;;;;;;1.20;1.10;;;24.10;79.30;;;;;;5071277;28;20479;-73
2021/05/10 09:36:08;;;;;;;1.50;1.27;;;24.10;80.00;;;;;;5071636;28;20484;-72
2021/05/10 09:38:36;;;;;;;1.20;1.10;;;24.00;79.90;;;;;;5070029;28;20488;-75
2021/05/10 09:41:04;;;;;;;1.43;1.37;;;23.80;79.80;;;;;;5069827;28;20453;-72
2021/05/10 09:43:33;;;;;;;1.20;1.10;;;23.80;80.80;;;;;;5071503;28;20460;-72
2021/05/10 09:46:04;;;;;;;1.60;1.30;;;23.80;80.50;;;;;;5069007;28;20514;-71
2021/05/10 09:48:33;;;;;;;1.20;1.10;;;23.80;80.20;;;;;;5071521;28;20453;-73
2021/05/10 09:51:01;;;;;;;1.20;1.20;;;23.80;81.10;;;;;;5068675;28;20802;-73
2021/05/10 09:53:49;;;;;;;1.50;1.27;;;23.90;79.80;;;;;;5070988;28;20468;-73
2021/05/10 09:56:27;;;;;;;1.40;1.20;;;24.00;79.80;;;;;;5071716;28;20789;-73
2021/05/10 09:58:55;;;;;;;1.20;1.00;;;24.10;80.80;;;;;;5068604;28;20481;-72
2021/05/10 10:01:24;;;;;;;1.30;1.20;;;24.10;79.10;;;;;;5070211;28;20486;-72
2021/05/10 10:04:03;;;;;;;1.40;1.30;;;24.00;79.20;;;;;;5069179;28;20538;-73
2021/05/10 10:06:30;;;;;;;1.63;1.20;;;24.00;80.20;;;;;;5071294;28;20503;-73
2021/05/10 10:08:58;;;;;;;1.43;1.10;;;24.00;80.80;;;;;;5068667;28;20456;-73
2021/05/10 10:11:26;;;;;;;1.67;1.30;;;24.10;80.50;;;;;;5071448;28;20827;-72
2021/05/10 10:13:55;;;;;;;1.30;1.10;;;24.10;80.20;;;;;;5068735;28;20452;-72
2021/05/10 10:16:24;;;;;;;1.40;1.10;;;24.20;79.80;;;;;;5071389;28;20453;-74
2021/05/10 10:18:51;;;;;;;1.20;1.20;;;24.30;80.80;;;;;;5068514;28;20512;-73
2021/05/10 10:21:19;;;;;;;1.30;1.30;;;24.20;80.10;;;;;;5071253;28;20448;-72
2021/05/10 10:23:52;;;;;;;1.40;1.30;;;24.10;79.50;;;;;;5068517;28;20467;-73
2021/05/10 10:26:20;;;;;;;1.20;1.00;;;24.10;79.80;;;;;;5071208;28;20457;-72
2021/05/10 10:28:47;;;;;;;1.93;1.40;;;23.90;79.80;;;;;;5068594;28;20452;-72
2021/05/10 10:31:16;;;;;;;1.40;1.20;;;23.70;79.70;;;;;;5071078;28;20488;-72
2021/05/10 10:33:48;;;;;;;3.30;1.30;;;23.60;80.50;;;;;;5069289;28;20457;-73
2021/05/10 10:36:21;;;;;;;1.30;1.20;;;23.60;80.00;;;;;;5071034;28;20461;-70
2021/05/10 10:38:47;;;;;;;1.20;1.00;;;23.70;80.30;;;;;;5068181;28;20484;-73
2021/05/10 10:41:32;;;;;;;1.67;1.10;;;23.80;80.30;;;;;;5069600;28;20820;-72
2021/05/10 10:44:27;;;;;;;1.30;1.20;;;23.70;80.90;;;;;;5068594;28;20453;-72
2021/05/10 10:46:53;;;;;;;1.20;1.10;;;23.60;81.40;;;;;;5070458;28;20500;-72
2021/05/10 10:49:28;;;;;;;1.20;1.10;;;23.60;80.20;;;;;;5068507;28;20460;-72
2021/05/10 10:51:55;;;;;;;1.20;1.00;;;23.40;80.20;;;;;;5070390;28;20456;-72
2021/05/10 10:54:23;;;;;;;1.43;1.10;;;23.10;79.50;;;;;;5067979;28;20486;-72
2021/05/10 10:56:53;;;;;;;1.20;1.10;;;23.00;81.10;;;;;;5070271;28;20487;-73
2021/05/10 10:59:25;;;;;;;1.30;1.10;;;22.80;79.50;;;;;;5067969;28;20891;-72
2021/05/10 11:01:51;;;;;;;1.20;1.03;;;22.60;78.70;;;;;;5070625;28;20577;-71
2021/05/10 11:04:28;;;;;;;1.20;0.97;;;22.60;79.10;;;;;;5070872;28;20483;-72
2021/05/10 11:06:56;;;;;;;1.20;1.10;;;22.80;79.10;;;;;;5074223;28;20784;-71
2021/05/10 11:09:51;;;;;;;1.20;1.00;;;22.90;79.00;;;;;;5071604;28;20476;-71
2021/05/10 11:12:50;;;;;;;1.40;1.27;;;22.90;79.20;;;;;;5073622;28;20467;-71
2021/05/10 11:15:50;;;;;;;1.20;1.10;;;23.10;79.10;;;;;;5071917;28;20460;-72
2021/05/10 11:18:37;;;;;;;1.20;1.00;;;23.10;79.20;;;;;;5068562;28;20487;-71
2021/05/10 11:21:05;;;;;;;1.47;1.10;;;22.90;79.10;;;;;;5071635;28;20471;-71
2021/05/10 11:23:34;;;;;;;1.67;1.20;;;22.70;79.90;;;;;;5073548;28;20449;-71
2021/05/10 11:26:02;;;;;;;1.60;1.33;;;22.50;80.80;;;;;;5071126;28;20456;-71
2021/05/10 11:28:47;;;;;;;1.40;1.10;;;22.50;80.50;;;;;;5073768;28;20472;-72
2021/05/10 11:31:31;;;;;;;1.20;1.00;;;22.40;81.40;;;;;;5072699;28;20488;-72
2021/05/10 11:34:15;;;;;;;1.77;1.20;;;22.30;82.40;;;;;;5071027;28;20593;-74
2021/05/10 11:36:50;;;;;;;1.20;1.10;;;22.20;82.80;;;;;;5073429;28;20459;-72
2021/05/10 11:39:22;;;;;;;1.20;1.03;;;22.20;83.10;;;;;;5072229;28;20536;-72
2021/05/10 11:41:49;;;;;;;1.23;1.20;;;22.20;83.70;;;;;;5074195;28;20457;-72
2021/05/10 11:44:27;;;;;;;1.20;1.03;;;22.10;84.30;;;;;;5071678;28;20475;-72
2021/05/10 11:46:56;;;;;;;1.20;1.13;;;22.10;82.90;;;;;;5074176;28;20448;-73
2021/05/10 11:49:31;;;;;;;1.20;1.00;;;21.90;82.20;;;;;;5071093;28;20449;-72
2021/05/10 11:51:59;;;;;;;1.20;1.10;;;21.90;83.00;;;;;;5073316;28;20518;-72
2021/05/10 11:54:30;;;;;;;1.37;1.10;;;21.90;83.20;;;;;;5070555;28;20479;-72
2021/05/10 11:56:59;;;;;;;1.20;1.00;;;22.00;82.50;;;;;;5073317;28;20468;-73
2021/05/10 11:59:41;;;;;;;1.20;1.00;;;21.90;81.60;;;;;;5070618;28;20576;-73
2021/05/10 12:02:22;;;;;;;1.20;1.00;;;21.80;81.70;;;;;;5073033;28;20468;-75
2021/05/10 12:04:50;;;;;;;1.63;1.30;;;21.70;82.20;;;;;;5070602;28;20488;-71
2021/05/10 12:07:18;;;;;;;1.30;1.10;;;21.70;82.70;;;;;;5072940;28;20533;-72
2021/05/10 12:09:50;;;;;;;1.20;1.03;;;21.70;82.10;;;;;;5070482;28;20453;-68
2021/05/10 12:12:39;;;;;;;1.20;1.10;;;21.70;81.60;;;;;;5072880;28;20449;-71
2021/05/10 12:15:14;;;;;;;1.20;1.00;;;21.70;81.50;;;;;;5069198;28;20457;-72
2021/05/10 12:17:44;;;;;;;1.20;1.10;;;21.50;81.40;;;;;;5072431;28;20475;-72
2021/05/10 12:20:13;;;;;;;1.20;1.00;;;21.40;82.30;;;;;;5069804;28;20480;-71
2021/05/10 12:22:42;;;;;;;1.20;1.00;;;21.50;83.30;;;;;;5071092;28;20460;-72
2021/05/10 12:25:17;;;;;;;1.20;1.00;;;21.40;81.20;;;;;;5069887;28;20457;-72
2021/05/10 12:27:46;;;;;;;1.20;1.10;;;21.40;81.70;;;;;;5072306;28;20970;-71
2021/05/10 12:30:20;;;;;;;1.20;1.10;;;21.30;82.50;;;;;;5069588;28;20840;-71
2021/05/10 12:32:50;;;;;;;1.30;1.10;;;21.20;81.30;;;;;;5072331;28;20471;-70
2021/05/10 12:35:20;;;;;;;1.20;1.00;;;21.20;82.00;;;;;;5069719;28;20464;-68
2021/05/10 12:37:49;;;;;;;1.20;1.00;;;21.20;82.40;;;;;;5070787;28;20457;-69
2021/05/10 12:40:18;;;;;;;1.20;1.03;;;21.20;82.20;;;;;;5068670;28;21106;-70
2021/05/10 12:42:46;;;;;;;1.20;1.00;;;21.20;81.00;;;;;;5071270;28;20452;-70
2021/05/10 12:45:15;;;;;;;1.20;1.00;;;21.20;81.20;;;;;;5068961;28;20524;-70
2021/05/10 12:47:53;;;;;;;1.20;1.00;;;21.40;82.20;;;;;;5071459;28;20959;-72
2021/05/10 12:50:37;;;;;;;1.20;1.00;;;21.40;80.90;;;;;;5068905;28;20806;-69
2021/05/10 12:53:05;;;;;;;1.47;1.07;;;21.30;81.00;;;;;;5069980;28;20457;-70
2021/05/10 12:55:33;;;;;;;1.20;1.03;;;21.30;82.00;;;;;;5068842;28;20477;-72
2021/05/10 12:58:16;;;;;;;1.20;1.10;;;21.30;80.80;;;;;;5066271;28;20943;-72
2021/05/10 13:00:43;;;;;;;1.20;1.00;;;21.30;80.40;;;;;;5068377;28;20517;-72